Time;durP1;ratioP1;P1;durP2;ratioP2;P2;SDS_P1;SDS_P2;PMS_P1;PMS_P2;Temp;Humidity;BMP_temperature;BMP_pressure;BME280_temperature;BME280_humidity;BME280_pressure;Samples;Min_cycle;Max_cycle;Signal;HPM_P1;HPM_P2
2023/06/05 00:00:30;;;;;;;3.80;3.10;;;;;;;19.70;39.80;97485.63;5015286;28;20830;-71
2023/06/05 00:02:55;;;;;;;6.33;2.57;;;;;;;19.67;39.78;97485.22;5021702;28;20426;-72
2023/06/05 00:05:21;;;;;;;5.30;2.97;;;;;;;19.71;39.49;97483.81;5018717;28;20540;-71
2023/06/05 00:07:46;;;;;;;3.07;2.70;;;;;;;19.63;39.58;97482.16;5015165;28;20709;-70
2023/06/05 00:10:13;;;;;;;3.43;2.90;;;;;;;19.52;39.87;97485.44;5016913;28;20613;-71
2023/06/05 00:12:38;;;;;;;3.80;2.50;;;;;;;19.54;39.98;97480.69;5027120;28;20196;-70
2023/06/05 00:15:05;;;;;;;6.23;3.17;;;;;;;19.56;39.89;97481.31;5014381;28;20476;-71
2023/06/05 00:17:30;;;;;;;3.07;2.77;;;;;;;19.43;39.68;97493.56;5022098;28;20747;-72
2023/06/05 00:19:58;;;;;;;4.17;2.57;;;;;;;19.37;39.99;97489.09;5017197;28;20463;-71
2023/06/05 00:22:25;;;;;;;2.90;2.60;;;;;;;19.35;40.19;97480.50;5017453;28;20742;-70
2023/06/05 00:24:50;;;;;;;7.67;2.73;;;;;;;19.32;40.24;97481.72;5024344;28;20414;-72
2023/06/05 00:27:16;;;;;;;3.67;3.00;;;;;;;19.21;40.34;97490.28;5016939;28;20550;-71
2023/06/05 00:29:41;;;;;;;4.13;2.60;;;;;;;19.23;40.33;97487.41;5025791;28;20259;-70
2023/06/05 00:32:07;;;;;;;4.77;2.90;;;;;;;19.22;40.52;97483.13;5029723;28;20263;-71
2023/06/05 00:34:32;;;;;;;3.83;2.70;;;;;;;19.22;40.64;97478.59;5017889;28;20675;-71
2023/06/05 00:36:58;;;;;;;8.07;2.80;;;;;;;19.17;40.69;97484.53;5017549;28;20305;-69
2023/06/05 00:39:23;;;;;;;7.73;3.10;;;;;;;19.12;41.15;97487.00;5010372;28;20218;-70
2023/06/05 00:41:49;;;;;;;7.67;2.80;;;;;;;19.06;41.05;97487.78;5026407;28;20190;-71
2023/06/05 00:44:14;;;;;;;4.13;3.10;;;;;;;18.98;40.87;97493.28;5039590;28;20180;-70
2023/06/05 00:46:41;;;;;;;6.53;2.60;;;;;;;18.97;40.76;97481.81;5016962;28;20211;-71
2023/06/05 00:49:07;;;;;;;7.53;3.30;;;;;;;18.96;40.95;97490.00;5028067;28;20186;-71
2023/06/05 00:51:33;;;;;;;3.57;2.60;;;;;;;18.89;40.97;97487.28;5014137;28;20427;-71
2023/06/05 00:53:58;;;;;;;3.27;2.97;;;;;;;18.76;41.45;97484.56;5025163;28;20441;-71
2023/06/05 00:56:24;;;;;;;3.90;3.10;;;;;;;18.78;41.99;97485.19;5024912;28;20213;-71
2023/06/05 00:58:49;;;;;;;6.07;3.17;;;;;;;18.79;42.04;97489.50;5021292;28;20596;-70
2023/06/05 01:01:16;;;;;;;6.80;3.20;;;;;;;18.78;41.71;97493.16;5020472;28;20181;-71
2023/06/05 01:03:44;;;;;;;3.90;3.20;;;;;;;18.78;41.52;97486.00;5029313;28;20184;-70
2023/06/05 01:06:11;;;;;;;5.70;3.27;;;;;;;18.73;41.75;97489.25;5013289;28;20543;-71
2023/06/05 01:08:41;;;;;;;7.13;3.00;;;;;;;18.64;41.85;97490.44;5023036;28;20421;-72
2023/06/05 01:11:25;;;;;;;3.20;2.90;;;;;;;18.56;42.19;97490.63;5022593;28;20521;-73
2023/06/05 01:14:16;;;;;;;3.87;3.00;;;;;;;18.56;42.04;97488.78;5021283;28;20462;-70
2023/06/05 01:16:42;;;;;;;3.50;2.83;;;;;;;18.54;42.31;97493.44;5024639;28;20450;-72
2023/06/05 01:19:10;;;;;;;3.13;2.90;;;;;;;18.56;42.23;97488.78;5018332;28;20462;-73
2023/06/05 01:21:35;;;;;;;5.23;2.87;;;;;;;18.55;42.14;97489.78;5020180;28;20422;-71
2023/06/05 01:24:01;;;;;;;4.23;2.87;;;;;;;18.55;42.22;97492.44;5019171;28;20453;-71
2023/06/05 01:27:00;;;;;;;5.73;3.17;;;;;;;18.44;42.51;97487.69;5018906;28;20673;-71
2023/06/05 01:29:37;;;;;;;2.80;2.47;;;;;;;18.42;42.79;97493.19;5010742;28;20280;-72
2023/06/05 01:32:12;;;;;;;2.93;2.50;;;;;;;18.31;43.07;97495.56;5009294;28;20466;-71
2023/06/05 01:34:37;;;;;;;4.60;2.80;;;;;;;18.28;43.03;97491.47;5009955;28;20947;-71
2023/06/05 01:37:03;;;;;;;3.50;3.00;;;;;;;18.28;43.08;97491.47;5007468;28;20440;-71
2023/06/05 01:39:29;;;;;;;3.47;2.90;;;;;;;18.20;43.11;97487.13;5017453;28;20287;-72
2023/06/05 01:41:57;;;;;;;5.13;3.17;;;;;;;18.18;43.38;97481.22;5012570;28;20295;-72
2023/06/05 01:44:22;;;;;;;4.00;3.07;;;;;;;18.22;43.04;97482.47;5017865;28;20418;-72
2023/06/05 01:46:49;;;;;;;5.20;2.90;;;;;;;18.14;43.22;97474.66;5014787;28;20452;-71
2023/06/05 01:49:14;;;;;;;5.77;3.10;;;;;;;18.12;43.22;97476.69;5009046;28;21788;-71
2023/06/05 01:51:40;;;;;;;4.17;2.50;;;;;;;18.18;42.88;97486.50;5007781;28;20431;-71
2023/06/05 01:54:06;;;;;;;5.40;2.70;;;;;;;18.16;43.07;97485.06;5008244;28;20196;-71
2023/06/05 01:56:32;;;;;;;3.40;2.70;;;;;;;18.11;43.27;97485.66;5010677;28;20232;-70
2023/06/05 01:58:58;;;;;;;3.40;2.53;;;;;;;18.09;43.32;97483.19;5016903;28;20497;-71
2023/06/05 02:01:23;;;;;;;3.90;2.83;;;;;;;17.99;43.48;97487.19;5008618;28;20509;-70
2023/06/05 02:03:49;;;;;;;4.20;2.70;;;;;;;17.92;43.69;97484.47;5008449;28;20254;-70
2023/06/05 02:06:16;;;;;;;3.60;3.10;;;;;;;17.85;44.28;97481.78;5006785;28;20204;-70
2023/06/05 02:08:42;;;;;;;5.63;2.77;;;;;;;17.77;44.65;97484.53;5008289;28;20968;-70
2023/06/05 02:11:10;;;;;;;4.07;3.00;;;;;;;17.68;44.95;97483.03;5014584;28;20430;-73
2023/06/05 02:13:39;;;;;;;5.97;3.20;;;;;;;17.73;44.98;97485.94;5006991;28;20428;-71
2023/06/05 02:16:05;;;;;;;2.90;2.70;;;;;;;17.62;44.88;97487.28;5011617;28;20478;-71
2023/06/05 02:18:32;;;;;;;4.60;2.73;;;;;;;17.64;44.76;97480.75;5016308;28;20474;-71
2023/06/05 02:20:57;;;;;;;4.63;2.97;;;;;;;17.63;44.57;97476.50;5011889;28;20434;-72
2023/06/05 02:23:23;;;;;;;5.90;3.10;;;;;;;17.68;44.61;97477.75;5006799;28;20431;-70
2023/06/05 02:25:49;;;;;;;6.60;3.10;;;;;;;17.66;44.67;97478.75;5020244;28;20184;-71
2023/06/05 02:28:15;;;;;;;3.07;2.50;;;;;;;17.59;44.48;97477.06;5007714;28;20183;-70
2023/06/05 02:30:44;;;;;;;4.40;3.17;;;;;;;17.52;44.63;97476.19;5008313;28;20291;-71
2023/06/05 02:33:10;;;;;;;2.90;2.60;;;;;;;17.59;44.40;97471.75;5015226;28;20514;-71
2023/06/05 02:35:36;;;;;;;4.50;2.50;;;;;;;17.53;44.52;97475.97;5018455;28;20434;-71
2023/06/05 02:38:04;;;;;;;3.23;2.93;;;;;;;17.42;44.85;97468.53;5016696;28;20449;-70
2023/06/05 02:40:30;;;;;;;4.43;2.57;;;;;;;17.42;44.99;97473.84;5013782;28;20432;-70
2023/06/05 02:42:55;;;;;;;7.57;3.10;;;;;;;17.41;44.90;97473.03;5009780;28;20431;-71
2023/06/05 02:45:21;;;;;;;4.93;3.00;;;;;;;17.39;44.61;97471.59;5004767;28;20193;-70
2023/06/05 02:47:48;;;;;;;3.60;2.83;;;;;;;17.33;44.88;97473.16;5007813;28;20247;-70
2023/06/05 02:50:14;;;;;;;4.63;3.30;;;;;;;17.23;45.32;97478.78;5007409;28;20188;-72
2023/06/05 02:52:39;;;;;;;4.53;3.07;;;;;;;17.23;45.40;97476.13;5012247;28;21133;-70
2023/06/05 02:55:07;;;;;;;4.90;3.17;;;;;;;17.17;45.40;97474.22;5012956;28;20192;-73
2023/06/05 02:57:35;;;;;;;5.13;3.40;;;;;;;17.16;45.39;97476.06;5043536;28;20789;-70
2023/06/05 03:00:07;;;;;;;5.10;3.23;;;;;;;17.11;45.55;97475.78;5020169;28;20463;-70
2023/06/05 03:02:36;;;;;;;7.40;3.47;;;;;;;17.17;45.72;97476.88;5017988;28;20431;-70
2023/06/05 03:05:02;;;;;;;4.13;3.27;;;;;;;17.07;45.81;97474.53;5008526;28;20423;-70
2023/06/05 03:07:29;;;;;;;6.30;3.17;;;;;;;17.01;45.62;97483.22;5015876;28;20492;-69
2023/06/05 03:09:55;;;;;;;5.07;3.43;;;;;;;17.04;45.44;97475.72;5021392;28;20425;-71
2023/06/05 03:12:20;;;;;;;4.27;3.33;;;;;;;16.98;45.77;97478.28;5012300;28;20499;-71
2023/06/05 03:14:45;;;;;;;8.50;3.70;;;;;;;16.98;45.66;97473.84;5019862;28;20190;-70
2023/06/05 03:17:11;;;;;;;4.57;3.30;;;;;;;16.96;45.83;97472.34;5019029;28;20287;-73
2023/06/05 03:19:36;;;;;;;6.33;3.63;;;;;;;16.95;45.95;97474.19;5011899;28;20220;-70
2023/06/05 03:22:03;;;;;;;5.57;3.40;;;;;;;16.93;45.96;97475.38;5012358;28;20219;-70
2023/06/05 03:24:29;;;;;;;6.70;3.10;;;;;;;16.84;46.17;97475.47;5014737;28;20211;-70
2023/06/05 03:26:55;;;;;;;4.73;3.10;;;;;;;16.92;45.90;97476.38;5011108;28;20482;-72
2023/06/05 03:29:20;;;;;;;5.90;3.40;;;;;;;16.88;46.05;97476.72;5014132;28;20184;-71
2023/06/05 03:31:45;;;;;;;4.37;3.00;;;;;;;16.83;46.29;97478.31;5010173;28;20280;-71
2023/06/05 03:34:11;;;;;;;4.20;3.07;;;;;;;16.78;46.25;97480.66;5011931;28;20216;-70
2023/06/05 03:36:39;;;;;;;4.50;3.17;;;;;;;16.67;46.54;97482.78;5007800;28;20572;-69
2023/06/05 03:39:05;;;;;;;3.60;2.97;;;;;;;16.68;46.59;97492.38;5013684;28;20232;-70
2023/06/05 03:41:30;;;;;;;6.80;3.60;;;;;;;16.73;46.45;97482.06;5006271;28;20463;-71
2023/06/05 03:43:56;;;;;;;5.17;3.30;;;;;;;16.79;46.44;97488.44;5021147;28;20279;-71
2023/06/05 03:46:23;;;;;;;5.93;3.20;;;;;;;16.74;46.52;97480.22;5014644;28;20227;-71
2023/06/05 03:48:49;;;;;;;5.47;3.40;;;;;;;16.74;46.37;97488.16;5014110;28;20416;-70
2023/06/05 03:51:18;;;;;;;3.70;3.13;;;;;;;16.72;46.58;97488.38;5009555;28;20987;-71
2023/06/05 03:53:44;;;;;;;5.37;3.37;;;;;;;16.74;46.83;97491.66;5008933;28;20276;-71
2023/06/05 03:56:11;;;;;;;6.93;3.30;;;;;;;16.73;47.04;97494.47;5005548;28;20456;-71
2023/06/05 03:58:37;;;;;;;5.43;3.17;;;;;;;16.68;46.94;97497.66;5010313;28;21210;-71
2023/06/05 04:01:03;;;;;;;4.10;3.40;;;;;;;16.73;47.02;97490.00;5011438;28;20424;-70
2023/06/05 04:03:28;;;;;;;4.00;3.00;;;;;;;16.79;46.72;97488.44;5017253;28;20431;-71
2023/06/05 04:05:54;;;;;;;6.20;3.40;;;;;;;16.72;47.19;97491.00;5007591;28;20267;-72
2023/06/05 04:08:19;;;;;;;3.10;2.80;;;;;;;16.73;47.46;97489.16;5019073;28;20242;-71
2023/06/05 04:10:45;;;;;;;8.80;3.27;;;;;;;16.74;47.26;97498.75;5017144;28;20193;-70
2023/06/05 04:13:11;;;;;;;5.60;3.23;;;;;;;16.76;47.49;97493.28;5014484;28;20199;-71
2023/06/05 04:15:36;;;;;;;10.80;3.23;;;;;;;16.72;47.61;97498.94;5008344;28;20442;-72
2023/06/05 04:18:02;;;;;;;6.23;2.93;;;;;;;16.77;47.65;97500.19;5012038;28;20873;-70
2023/06/05 04:20:28;;;;;;;5.20;3.37;;;;;;;16.82;47.83;97493.34;5009706;28;20279;-69
2023/06/05 04:22:53;;;;;;;9.37;3.20;;;;;;;16.78;47.84;97501.84;5014626;28;20726;-70
2023/06/05 04:25:18;;;;;;;4.63;3.50;;;;;;;16.78;47.94;97507.13;5018261;28;20636;-72
2023/06/05 04:27:48;;;;;;;4.40;3.10;;;;;;;16.80;47.96;97511.25;5009552;28;20204;-70
2023/06/05 04:30:13;;;;;;;7.63;3.53;;;;;;;16.84;47.96;97509.88;5009639;28;20189;-71
2023/06/05 04:32:39;;;;;;;4.97;2.97;;;;;;;16.87;47.63;97506.03;5017338;28;20419;-71
2023/06/05 04:35:09;;;;;;;7.37;3.57;;;;;;;16.92;47.18;97513.44;5009324;28;20252;-70
2023/06/05 04:37:36;;;;;;;4.93;2.93;;;;;;;16.97;47.12;97506.59;5016029;28;20880;-70
2023/06/05 04:40:09;;;;;;;3.40;2.70;;;;;;;17.06;47.28;97506.47;5012895;28;20502;-72
2023/06/05 04:42:36;;;;;;;3.70;2.90;;;;;;;17.09;47.56;97511.41;5014538;28;20419;-69
2023/06/05 04:45:04;;;;;;;7.67;3.60;;;;;;;17.11;47.50;97501.47;5014402;28;20511;-70
2023/06/05 04:47:31;;;;;;;7.50;3.40;;;;;;;17.14;47.72;97504.53;5004577;28;20482;-70
2023/06/05 04:50:03;;;;;;;4.90;3.47;;;;;;;17.19;47.59;97510.13;5016550;28;20430;-72
2023/06/05 04:52:30;;;;;;;4.47;3.07;;;;;;;17.22;47.75;97500.97;5008911;28;20426;-71
2023/06/05 04:54:57;;;;;;;4.60;3.50;;;;;;;17.26;47.86;97494.31;5009597;28;20423;-70
2023/06/05 04:57:25;;;;;;;5.43;3.10;;;;;;;17.33;48.19;97503.13;5008064;28;20451;-71
2023/06/05 04:59:52;;;;;;;11.20;3.47;;;;;;;17.37;47.60;97502.75;5005379;28;20451;-70
2023/06/05 05:02:17;;;;;;;3.90;3.07;;;;;;;17.45;47.57;97500.78;5007332;28;20486;-70
2023/06/05 05:04:43;;;;;;;8.93;3.40;;;;;;;17.52;47.66;97502.69;5008841;28;20428;-71
2023/06/05 05:07:14;;;;;;;7.70;3.00;;;;;;;17.60;47.65;97506.03;5010460;28;20287;-71
2023/06/05 05:09:40;;;;;;;3.40;3.10;;;;;;;17.62;46.97;97503.19;5020339;28;20171;-71
2023/06/05 05:12:07;;;;;;;6.13;3.23;;;;;;;17.68;47.08;97497.13;5006899;28;20488;-70
2023/06/05 05:14:32;;;;;;;9.40;3.23;;;;;;;17.79;46.65;97503.72;5009086;28;20188;-70
2023/06/05 05:16:58;;;;;;;11.73;3.80;;;;;;;17.89;46.35;97498.94;5011577;28;21077;-71
2023/06/05 05:19:23;;;;;;;7.07;3.63;;;;;;;18.00;46.23;97504.75;5006333;28;20212;-72
2023/06/05 05:21:48;;;;;;;3.47;3.17;;;;;;;18.13;45.98;97504.03;5008476;28;20770;-71
2023/06/05 05:24:14;;;;;;;6.33;2.93;;;;;;;18.25;44.40;97497.16;5013323;28;20273;-72
2023/06/05 05:26:40;;;;;;;5.90;2.93;;;;;;;18.39;45.19;97503.38;5014072;28;20277;-71
2023/06/05 05:29:06;;;;;;;5.60;2.90;;;;;;;18.52;44.49;97500.81;5005483;28;20231;-71
2023/06/05 05:31:31;;;;;;;5.67;3.17;;;;;;;18.65;44.54;97494.75;5003218;28;20275;-71
2023/06/05 05:33:58;;;;;;;6.43;3.23;;;;;;;18.77;44.26;97504.78;5008246;28;20411;-71
2023/06/05 05:36:24;;;;;;;9.67;3.00;;;;;;;18.86;43.48;97506.25;5006454;28;20204;-71
2023/06/05 05:38:49;;;;;;;4.13;2.90;;;;;;;18.96;43.08;97500.63;5016136;28;20466;-70
2023/06/05 05:41:15;;;;;;;4.30;3.20;;;;;;;19.11;42.81;97501.28;5015379;28;20423;-71
2023/06/05 05:43:40;;;;;;;10.03;3.20;;;;;;;19.27;43.01;97509.91;5014885;28;20332;-71
2023/06/05 05:46:06;;;;;;;3.70;3.30;;;;;;;19.45;42.21;97504.03;5011078;28;20200;-70
2023/06/05 05:48:35;;;;;;;8.00;3.10;;;;;;;19.64;42.34;97511.19;5010787;28;20661;-70
2023/06/05 05:51:00;;;;;;;4.80;2.90;;;;;;;19.82;42.13;97503.63;5016497;28;20199;-71
2023/06/05 05:53:26;;;;;;;5.67;3.20;;;;;;;19.91;41.04;97500.59;5041600;28;20419;-70
2023/06/05 05:55:51;;;;;;;5.13;3.03;;;;;;;20.03;40.87;97507.97;5010462;28;20311;-70
2023/06/05 05:58:18;;;;;;;3.27;2.97;;;;;;;20.09;41.05;97507.94;5009332;28;20208;-70
2023/06/05 06:00:43;;;;;;;5.83;3.23;;;;;;;20.24;41.07;97515.69;5015923;28;20308;-70
2023/06/05 06:03:09;;;;;;;13.00;3.50;;;;;;;20.38;40.67;97513.84;5015754;28;20420;-69
2023/06/05 06:05:35;;;;;;;4.70;3.47;;;;;;;20.49;40.09;97511.56;5008677;28;20525;-69
2023/06/05 06:08:02;;;;;;;4.23;3.37;;;;;;;20.64;39.66;97514.81;5012501;28;20240;-72
2023/06/05 06:10:27;;;;;;;10.77;3.13;;;;;;;20.82;39.19;97510.69;5010930;28;20446;-70
2023/06/05 06:12:53;;;;;;;6.40;2.90;;;;;;;21.00;39.36;97513.47;5020886;28;20510;-70
2023/06/05 06:15:18;;;;;;;9.40;4.07;;;;;;;21.14;37.68;97502.75;5008701;28;20211;-71
2023/06/05 06:17:44;;;;;;;6.97;3.00;;;;;;;21.27;37.77;97509.84;5010040;28;20207;-71
2023/06/05 06:20:12;;;;;;;5.67;3.87;;;;;;;21.43;37.46;97505.84;5011268;28;20231;-71
2023/06/05 06:22:38;;;;;;;4.43;3.00;;;;;;;21.60;37.28;97504.34;5019238;28;20187;-69
2023/06/05 06:25:04;;;;;;;6.00;2.90;;;;;;;21.73;36.92;97503.44;5014065;28;21131;-72
2023/06/05 06:27:30;;;;;;;7.17;3.10;;;;;;;21.88;36.53;97505.78;5010647;28;20442;-72
2023/06/05 06:29:56;;;;;;;5.47;3.63;;;;;;;22.04;36.12;97503.63;5016264;28;20184;-71
2023/06/05 06:32:23;;;;;;;6.27;3.43;;;;;;;22.17;35.24;97506.16;5012616;28;20416;-72
2023/06/05 06:34:48;;;;;;;9.43;3.73;;;;;;;22.29;34.98;97508.09;5008061;28;20411;-72
2023/06/05 06:37:15;;;;;;;7.50;3.27;;;;;;;22.40;34.68;97510.03;5007691;28;20956;-71
2023/06/05 06:39:41;;;;;;;5.60;3.23;;;;;;;22.49;34.16;97514.06;5012605;28;20290;-71
2023/06/05 06:42:09;;;;;;;5.30;3.30;;;;;;;22.60;33.87;97515.22;5012196;28;20415;-71
2023/06/05 06:44:35;;;;;;;9.23;3.17;;;;;;;22.70;33.86;97517.34;5003454;28;20506;-71
2023/06/05 06:47:00;;;;;;;5.43;3.57;;;;;;;22.77;33.58;97507.41;5017933;28;21028;-71
2023/06/05 06:49:27;;;;;;;6.60;3.03;;;;;;;22.89;33.36;97512.00;5010942;28;20654;-72
2023/06/05 06:51:53;;;;;;;8.20;3.07;;;;;;;23.01;33.42;97520.88;5013558;28;20176;-69
2023/06/05 06:54:18;;;;;;;5.93;3.60;;;;;;;23.09;32.94;97517.09;5015951;28;20421;-72
2023/06/05 06:56:44;;;;;;;4.63;3.50;;;;;;;23.16;33.09;97513.31;5021018;28;20200;-70
2023/06/05 06:59:15;;;;;;;9.73;3.07;;;;;;;23.26;33.13;97511.97;5013979;28;20625;-71
2023/06/05 07:01:48;;;;;;;6.33;3.50;;;;;;;23.37;32.81;97513.84;5008353;28;20267;-71
2023/06/05 07:04:19;;;;;;;6.70;3.80;;;;;;;23.46;32.43;97509.81;5010538;28;20430;-71
2023/06/05 07:06:45;;;;;;;5.47;3.60;;;;;;;23.50;32.33;97512.03;5005981;28;20470;-72
2023/06/05 07:09:11;;;;;;;10.63;3.23;;;;;;;23.54;32.36;97507.88;5014859;28;20416;-72
2023/06/05 07:11:36;;;;;;;5.70;3.27;;;;;;;23.61;32.58;97508.56;5012735;28;20410;-70
2023/06/05 07:14:02;;;;;;;3.70;3.30;;;;;;;23.68;31.65;97511.16;5011093;28;20272;-71
2023/06/05 07:16:27;;;;;;;8.20;3.50;;;;;;;23.71;31.74;97513.38;5007200;28;20588;-72
2023/06/05 07:18:54;;;;;;;4.43;3.47;;;;;;;23.87;31.93;97511.88;5018034;28;20702;-71
2023/06/05 07:21:20;;;;;;;9.07;3.47;;;;;;;23.95;31.84;97514.22;5013553;28;20173;-71
2023/06/05 07:23:51;;;;;;;7.80;3.50;;;;;;;24.07;31.60;97511.59;5015985;28;20426;-70
2023/06/05 07:26:17;;;;;;;11.27;3.77;;;;;;;24.19;31.04;97511.59;5010698;28;20204;-71
2023/06/05 07:28:43;;;;;;;7.60;3.57;;;;;;;24.30;30.65;97516.13;5016365;28;20429;-73
2023/06/05 07:31:08;;;;;;;4.17;3.67;;;;;;;24.43;30.63;97512.38;5011919;28;20886;-72
2023/06/05 07:33:34;;;;;;;5.33;3.93;;;;;;;24.55;31.01;97507.03;5006917;28;20609;-71
2023/06/05 07:36:00;;;;;;;7.13;3.70;;;;;;;24.69;30.48;97510.28;5016903;28;20259;-72
2023/06/05 07:38:26;;;;;;;4.33;3.30;;;;;;;24.74;29.87;97505.03;5007440;28;20216;-71
2023/06/05 07:40:52;;;;;;;9.30;3.57;;;;;;;24.84;30.55;97509.78;5011462;28;20929;-71
2023/06/05 07:43:17;;;;;;;5.33;3.53;;;;;;;24.92;30.56;97509.41;5010164;28;20230;-71
2023/06/05 07:45:43;;;;;;;7.50;3.77;;;;;;;25.08;30.21;97515.06;5015930;28;20201;-72
2023/06/05 07:48:08;;;;;;;6.10;3.47;;;;;;;25.19;30.35;97511.53;5015794;28;20698;-72
2023/06/05 07:50:34;;;;;;;5.53;3.63;;;;;;;25.30;30.36;97513.38;5016541;28;20185;-70
2023/06/05 07:53:01;;;;;;;5.47;3.20;;;;;;;25.38;30.15;97506.81;5019590;28;20388;-71
2023/06/05 07:55:26;;;;;;;6.20;4.30;;;;;;;25.50;30.36;97506.75;5018877;28;20724;-71
2023/06/05 07:57:52;;;;;;;6.10;3.90;;;;;;;25.61;30.90;97503.19;5012189;28;20514;-74
2023/06/05 08:00:19;;;;;;;11.03;3.70;;;;;;;25.71;30.35;97504.41;5010242;28;20204;-72
2023/06/05 08:02:45;;;;;;;8.10;4.10;;;;;;;25.85;30.35;97502.22;5018814;28;20668;-72
2023/06/05 08:05:10;;;;;;;9.23;4.10;;;;;;;25.92;30.69;97501.00;5012379;28;20407;-72
2023/06/05 08:07:36;;;;;;;4.67;3.60;;;;;;;26.00;30.48;97505.16;5016186;28;20948;-71
2023/06/05 08:10:02;;;;;;;5.57;3.87;;;;;;;26.10;30.64;97493.78;5010426;28;20172;-71
2023/06/05 08:12:27;;;;;;;6.97;4.40;;;;;;;26.21;30.62;97490.19;5010132;28;20680;-71
2023/06/05 08:14:53;;;;;;;10.03;3.97;;;;;;;26.37;30.63;97491.22;5019832;28;20433;-72
2023/06/05 08:17:18;;;;;;;4.90;3.93;;;;;;;26.59;30.90;97492.31;5022244;28;20595;-72
2023/06/05 08:19:44;;;;;;;5.20;4.27;;;;;;;26.74;30.82;97486.31;5016075;28;20204;-71
2023/06/05 08:22:09;;;;;;;7.33;4.40;;;;;;;26.75;30.89;97496.00;5027245;28;20230;-73
2023/06/05 08:24:36;;;;;;;10.07;4.10;;;;;;;26.92;31.15;97494.06;5012743;28;20642;-71
2023/06/05 08:27:01;;;;;;;8.40;4.47;;;;;;;27.07;31.12;97484.53;5013538;28;20201;-72
2023/06/05 08:29:27;;;;;;;8.13;4.37;;;;;;;27.19;30.93;97487.09;5016994;28;20430;-71
2023/06/05 08:31:53;;;;;;;6.13;3.63;;;;;;;27.34;31.25;97484.56;5010702;28;20173;-72
2023/06/05 08:34:18;;;;;;;6.13;4.07;;;;;;;27.49;30.66;97475.03;5011292;28;20499;-72
2023/06/05 08:36:44;;;;;;;12.10;4.87;;;;;;;27.59;30.82;97483.22;5015086;28;20681;-72
2023/06/05 08:39:10;;;;;;;5.50;4.70;;;;;;;27.70;30.91;97476.00;5012557;28;20210;-70
2023/06/05 08:41:35;;;;;;;9.83;4.30;;;;;;;27.80;30.59;97480.69;5012300;28;20181;-71
2023/06/05 08:44:01;;;;;;;11.43;4.73;;;;;;;27.95;30.29;97480.78;5010400;28;20688;-72
2023/06/05 08:46:30;;;;;;;7.60;4.30;;;;;;;28.02;30.66;97475.97;5013166;28;20204;-71
2023/06/05 08:48:57;;;;;;;6.33;4.40;;;;;;;28.12;30.71;97483.34;5016518;28;20469;-70
2023/06/05 08:51:22;;;;;;;5.57;4.30;;;;;;;28.18;31.21;97471.53;5018068;28;20450;-70
2023/06/05 08:54:01;;;;;;;4.20;3.53;;;;;;;28.18;31.08;97482.31;5018357;28;20423;-72
2023/06/05 08:56:27;;;;;;;8.70;4.60;;;;;;;28.34;30.40;97485.91;5010418;28;20203;-71
2023/06/05 08:58:54;;;;;;;13.57;4.43;;;;;;;28.43;30.20;97478.13;5015581;28;20523;-71
2023/06/05 09:01:20;;;;;;;9.20;4.93;;;;;;;28.48;30.24;97485.44;5011372;28;20431;-70
2023/06/05 09:03:46;;;;;;;11.27;4.87;;;;;;;28.61;30.12;97476.88;5014398;28;20422;-70
2023/06/05 09:06:11;;;;;;;6.70;4.60;;;;;;;28.72;30.09;97468.84;5018503;28;20203;-73
2023/06/05 09:08:37;;;;;;;7.80;4.50;;;;;;;28.72;30.23;97468.84;5008809;28;20188;-69
2023/06/05 09:11:26;;;;;;;7.37;3.93;;;;;;;28.80;31.02;97471.06;5009817;28;20184;-71
2023/06/05 09:13:53;;;;;;;7.33;5.10;;;;;;;28.91;30.25;97470.00;5009778;28;20429;-71
2023/06/05 09:16:20;;;;;;;12.73;4.83;;;;;;;28.96;30.52;97475.44;5010332;28;20797;-70
2023/06/05 09:18:56;;;;;;;7.40;4.70;;;;;;;29.03;30.60;97468.94;5012167;28;20463;-71
2023/06/05 09:21:28;;;;;;;6.67;4.57;;;;;;;29.19;30.43;97475.19;5008012;28;20415;-69
2023/06/05 09:24:11;;;;;;;5.93;4.40;;;;;;;29.34;31.21;97472.53;5010639;28;21224;-70
2023/06/05 09:26:59;;;;;;;4.70;4.20;;;;;;;29.44;29.79;97469.06;5011935;28;20982;-69
2023/06/05 09:29:26;;;;;;;5.73;4.47;;;;;;;29.61;29.66;97473.41;5007428;28;20450;-70
2023/06/05 09:31:53;;;;;;;5.30;4.37;;;;;;;29.61;29.31;97474.19;5015041;28;20478;-70
2023/06/05 09:34:33;;;;;;;4.77;4.27;;;;;;;29.56;29.28;97475.00;5008793;28;20971;-68
2023/06/05 09:37:00;;;;;;;8.80;4.70;;;;;;;29.63;29.38;97468.50;5029302;28;20881;-70
2023/06/05 09:39:27;;;;;;;8.33;4.70;;;;;;;29.65;29.46;97469.06;5009815;28;20509;-70
2023/06/05 09:41:54;;;;;;;5.37;4.00;;;;;;;29.66;29.10;97471.50;5010345;28;20416;-71
2023/06/05 09:44:19;;;;;;;7.10;4.30;;;;;;;29.74;28.88;97467.41;5010056;28;20415;-72
2023/06/05 09:46:53;;;;;;;6.70;4.03;;;;;;;29.78;28.63;97467.72;5015545;28;20504;-70
2023/06/05 09:49:18;;;;;;;5.70;4.17;;;;;;;29.85;29.00;97462.84;5016083;28;20203;-71
2023/06/05 09:51:45;;;;;;;8.03;4.80;;;;;;;29.72;28.95;97465.00;5011331;28;20439;-71
2023/06/05 09:54:12;;;;;;;11.63;4.90;;;;;;;29.48;29.35;97453.97;5007750;28;20184;-69
2023/06/05 09:56:39;;;;;;;6.57;4.10;;;;;;;29.52;29.12;97460.41;5014856;28;20443;-70
2023/06/05 09:59:05;;;;;;;10.00;4.40;;;;;;;29.62;29.62;97458.78;5008664;28;20574;-69
2023/06/05 10:01:33;;;;;;;7.73;4.77;;;;;;;29.71;28.84;97451.78;5010642;28;20820;-71
2023/06/05 10:04:06;;;;;;;7.80;4.30;;;;;;;29.38;29.10;97462.03;5006947;28;20447;-71
2023/06/05 10:06:32;;;;;;;4.63;4.10;;;;;;;29.17;29.78;97456.56;5016931;28;21759;-70
2023/06/05 10:08:59;;;;;;;6.57;4.50;;;;;;;29.00;30.64;97453.28;5008489;28;20777;-70
2023/06/05 10:11:26;;;;;;;10.43;4.73;;;;;;;29.13;30.64;97447.38;5007866;28;20439;-70
2023/06/05 10:13:52;;;;;;;5.30;4.87;;;;;;;29.34;29.41;97458.25;5015477;28;20514;-70
2023/06/05 10:16:18;;;;;;;6.70;4.60;;;;;;;29.20;29.55;97449.81;5008510;28;20526;-70
2023/06/05 10:18:47;;;;;;;5.57;3.80;;;;;;;29.18;29.89;97450.09;5011102;28;20208;-69
2023/06/05 10:21:16;;;;;;;7.07;4.30;;;;;;;29.18;30.37;97455.50;5008651;28;20447;-69
2023/06/05 10:23:44;;;;;;;5.50;4.40;;;;;;;29.08;29.99;97450.88;5014216;28;20454;-71
2023/06/05 10:26:27;;;;;;;4.67;4.20;;;;;;;29.22;29.15;97439.59;5014315;28;20416;-72
2023/06/05 10:29:09;;;;;;;8.97;4.40;;;;;;;29.24;28.79;97440.94;5010922;28;20414;-69
2023/06/05 10:31:46;;;;;;;8.40;4.50;;;;;;;29.16;29.23;97440.66;5012219;28;20454;-70
2023/06/05 10:34:36;;;;;;;5.90;4.60;;;;;;;29.42;29.05;97449.63;5014100;28;20426;-69
2023/06/05 10:37:09;;;;;;;5.83;4.23;;;;;;;29.33;28.43;97451.22;5018978;28;20428;-71
2023/06/05 10:39:35;;;;;;;7.23;4.37;;;;;;;29.44;28.78;97447.47;5004211;28;20462;-68
2023/06/05 10:42:01;;;;;;;6.27;3.53;;;;;;;29.48;27.39;97435.06;5004064;28;20427;-70
2023/06/05 10:44:42;;;;;;;6.00;3.90;;;;;;;29.42;27.77;97438.81;5009401;28;20678;-70
2023/06/05 10:47:32;;;;;;;8.37;3.60;;;;;;;29.71;28.35;97430.19;5016327;28;20511;-69
2023/06/05 10:50:16;;;;;;;7.77;4.10;;;;;;;29.80;27.61;97433.94;5011247;28;20424;-69
2023/06/05 10:52:42;;;;;;;5.03;4.53;;;;;;;29.95;26.66;97425.03;5008010;28;20438;-69
2023/06/05 10:55:07;;;;;;;4.60;4.10;;;;;;;30.12;25.96;97419.31;5006607;28;20415;-70
2023/06/05 10:58:01;;;;;;;4.17;3.50;;;;;;;30.41;25.88;97421.38;5013114;28;20199;-69
2023/06/05 11:00:27;;;;;;;4.20;3.70;;;;;;;30.67;25.36;97418.59;5010049;28;20213;-68
2023/06/05 11:02:53;;;;;;;11.73;3.90;;;;;;;30.83;25.11;97427.44;5010670;28;20420;-71
2023/06/05 11:05:19;;;;;;;8.07;3.53;;;;;;;31.06;23.94;97419.75;5010258;28;20509;-69
2023/06/05 11:07:45;;;;;;;7.77;3.53;;;;;;;31.27;24.06;97409.59;5006321;28;20680;-68
2023/06/05 11:10:22;;;;;;;4.67;3.97;;;;;;;31.41;23.12;97410.56;4993607;28;20424;-69
2023/06/05 11:12:50;;;;;;;5.23;3.30;;;;;;;31.32;22.41;97406.84;5010184;28;20430;-70
2023/06/05 11:15:42;;;;;;;4.40;3.60;;;;;;;31.53;22.95;97407.50;5013812;28;20415;-70
2023/06/05 11:18:26;;;;;;;6.50;3.67;;;;;;;31.32;23.22;97417.69;5012051;28;20796;-71
2023/06/05 11:20:52;;;;;;;6.70;3.33;;;;;;;31.11;23.16;97417.00;5015290;28;20481;-70
2023/06/05 11:23:17;;;;;;;3.53;3.23;;;;;;;30.90;23.31;97411.72;5015600;28;20917;-68
2023/06/05 11:25:43;;;;;;;4.90;3.57;;;;;;;30.61;23.38;97420.53;5013085;28;20223;-70
2023/06/05 11:28:10;;;;;;;5.30;3.50;;;;;;;30.29;24.10;97412.78;5011455;28;20211;-70
2023/06/05 11:30:42;;;;;;;7.73;3.50;;;;;;;30.22;24.29;97407.69;5013316;28;20207;-68
2023/06/05 11:33:13;;;;;;;11.00;4.00;;;;;;;30.49;23.92;97407.31;5010234;28;20518;-71